Time;durP1;ratioP1;P1;durP2;ratioP2;P2;SDS_P1;SDS_P2;PMS_P1;PMS_P2;Temp;Humidity;BMP_temperature;BMP_pressure;BME280_temperature;BME280_humidity;BME280_pressure;Samples;Min_cycle;Max_cycle;Signal;HPM_P1;HPM_P2
2024/04/13 00:00:22;;;;;;;3.33;2.15;;;9.80;99.90;;;;;;5451844;26;20238;-75
2024/04/13 00:02:48;;;;;;;2.25;1.98;;;9.70;99.90;;;;;;5441352;26;20273;-74
2024/04/13 00:05:17;;;;;;;2.63;2.30;;;9.70;99.90;;;;;;5442028;26;20258;-74
2024/04/13 00:07:42;;;;;;;2.22;1.95;;;9.60;99.90;;;;;;5442186;26;20238;-75
2024/04/13 00:10:11;;;;;;;2.77;2.47;;;9.60;99.90;;;;;;5441545;26;20237;-75
2024/04/13 00:12:37;;;;;;;4.00;2.33;;;9.60;99.90;;;;;;5441954;26;20847;-75
2024/04/13 00:15:08;;;;;;;2.00;1.90;;;9.60;99.90;;;;;;5441605;26;20234;-75
2024/04/13 00:17:34;;;;;;;3.05;2.10;;;9.50;99.90;;;;;;5443902;26;20293;-75
2024/04/13 00:20:02;;;;;;;1.90;1.70;;;9.50;99.90;;;;;;5441372;26;20693;-75
2024/04/13 00:22:29;;;;;;;4.70;2.65;;;9.60;99.90;;;;;;5477004;26;20264;-75
2024/04/13 00:24:58;;;;;;;2.90;2.20;;;9.60;99.90;;;;;;5453485;26;20591;-75
2024/04/13 00:27:24;;;;;;;4.85;2.40;;;9.70;99.90;;;;;;5440899;26;20230;-74
2024/04/13 00:29:52;;;;;;;5.10;2.63;;;9.60;99.90;;;;;;5441235;26;20628;-75
2024/04/13 00:32:20;;;;;;;4.95;2.80;;;9.50;99.90;;;;;;5441380;26;20230;-74
2024/04/13 00:34:50;;;;;;;4.63;2.85;;;9.40;99.90;;;;;;5442259;26;20333;-74
2024/04/13 00:37:21;;;;;;;6.72;2.80;;;9.40;99.90;;;;;;5441320;26;20318;-76
2024/04/13 00:39:49;;;;;;;3.85;2.20;;;9.40;99.90;;;;;;5466329;26;20245;-74
2024/04/13 00:42:16;;;;;;;7.63;2.97;;;9.40;99.90;;;;;;5477694;26;20713;-74
2024/04/13 00:44:44;;;;;;;4.10;2.20;;;9.30;99.90;;;;;;5456702;26;20600;-74
2024/04/13 00:47:11;;;;;;;4.03;2.50;;;9.20;99.90;;;;;;5441642;26;20288;-74
2024/04/13 00:49:42;;;;;;;3.67;2.20;;;9.20;99.90;;;;;;5440868;26;20230;-74
2024/04/13 00:52:11;;;;;;;3.72;2.00;;;9.10;99.90;;;;;;5440510;26;20317;-74
2024/04/13 00:54:41;;;;;;;2.75;2.25;;;9.10;99.90;;;;;;5447176;26;20375;-75
2024/04/13 00:57:08;;;;;;;2.85;2.55;;;9.10;99.90;;;;;;5441923;26;20345;-75
2024/04/13 00:59:37;;;;;;;7.05;2.63;;;9.00;99.90;;;;;;5439032;26;20289;-74
2024/04/13 01:02:08;;;;;;;2.50;2.30;;;9.10;99.90;;;;;;5440046;26;20234;-75
2024/04/13 01:04:37;;;;;;;4.15;2.50;;;9.00;99.90;;;;;;5459497;26;20233;-75
2024/04/13 01:07:05;;;;;;;2.00;1.80;;;9.00;99.90;;;;;;5440921;26;20572;-75
2024/04/13 01:09:36;;;;;;;2.88;2.65;;;9.00;99.90;;;;;;5462103;26;20244;-75
2024/04/13 01:12:05;;;;;;;3.45;2.40;;;9.00;99.90;;;;;;5452115;26;20280;-74
2024/04/13 01:14:35;;;;;;;3.47;2.42;;;8.90;99.90;;;;;;5439459;26;20634;-75
2024/04/13 01:17:02;;;;;;;2.25;2.05;;;8.90;99.90;;;;;;5440714;26;20242;-75
2024/04/13 01:19:31;;;;;;;2.70;2.10;;;8.90;99.90;;;;;;5439803;26;20731;-75
2024/04/13 01:21:57;;;;;;;5.50;2.70;;;8.90;99.90;;;;;;5440583;26;20289;-75
2024/04/13 01:24:28;;;;;;;3.07;2.00;;;8.90;99.90;;;;;;5441227;26;20667;-75
2024/04/13 01:26:55;;;;;;;2.60;2.40;;;8.90;99.90;;;;;;5441129;26;20463;-75
2024/04/13 01:29:24;;;;;;;5.32;1.88;;;8.90;99.90;;;;;;5439667;26;20647;-75
2024/04/13 01:31:50;;;;;;;2.45;2.25;;;8.80;99.90;;;;;;5460310;26;20253;-75
2024/04/13 01:34:18;;;;;;;3.47;2.10;;;8.80;99.90;;;;;;5440946;26;20338;-75
2024/04/13 01:36:44;;;;;;;4.30;2.50;;;8.80;99.90;;;;;;5440109;26;20535;-75
2024/04/13 01:39:14;;;;;;;1.80;1.60;;;8.70;99.90;;;;;;5440479;26;20321;-75
2024/04/13 01:41:45;;;;;;;3.28;2.45;;;8.70;99.90;;;;;;5439897;26;20567;-75
2024/04/13 01:44:15;;;;;;;2.75;2.42;;;8.70;99.90;;;;;;5472153;26;20237;-75
2024/04/13 01:46:41;;;;;;;2.55;2.15;;;8.70;99.90;;;;;;5470848;26;20241;-75
2024/04/13 01:49:09;;;;;;;6.70;2.57;;;8.70;99.90;;;;;;5439861;26;20261;-76
2024/04/13 01:51:35;;;;;;;3.78;2.30;;;8.60;99.90;;;;;;5440573;26;20330;-76
2024/04/13 01:54:04;;;;;;;2.47;2.13;;;8.70;99.90;;;;;;5440799;26;20576;-75
2024/04/13 01:56:30;;;;;;;2.33;2.05;;;8.60;99.90;;;;;;5440549;26;20460;-75
2024/04/13 01:59:01;;;;;;;3.45;2.30;;;8.60;99.90;;;;;;5439932;26;20581;-75
2024/04/13 02:01:27;;;;;;;4.20;2.30;;;8.60;99.90;;;;;;5441005;26;20326;-75
2024/04/13 02:03:55;;;;;;;2.85;2.65;;;8.60;99.90;;;;;;5441260;26;20335;-75
2024/04/13 02:06:21;;;;;;;2.50;2.22;;;8.60;99.90;;;;;;5442295;26;20620;-75
2024/04/13 02:08:50;;;;;;;3.30;2.00;;;8.60;99.90;;;;;;5443476;26;20345;-76
2024/04/13 02:11:16;;;;;;;2.30;2.10;;;8.70;99.90;;;;;;5441324;26;20281;-75
2024/04/13 02:13:45;;;;;;;3.22;2.00;;;8.70;99.90;;;;;;5441095;26;20337;-76
2024/04/13 02:16:13;;;;;;;2.80;2.60;;;8.70;99.90;;;;;;5440629;26;20331;-76
2024/04/13 02:18:42;;;;;;;4.38;2.00;;;8.60;99.90;;;;;;5439595;26;20784;-76
2024/04/13 02:21:07;;;;;;;3.17;2.88;;;8.60;99.90;;;;;;5440771;26;20333;-76
2024/04/13 02:23:36;;;;;;;4.10;2.10;;;8.60;99.90;;;;;;5440831;26;20234;-76
2024/04/13 02:26:02;;;;;;;2.72;2.50;;;8.50;99.90;;;;;;5462581;26;20227;-75
2024/04/13 02:28:32;;;;;;;3.17;2.25;;;8.50;99.90;;;;;;5458355;26;20292;-75
2024/04/13 02:30:58;;;;;;;2.90;2.30;;;8.50;99.90;;;;;;5442967;26;20573;-75
2024/04/13 02:33:29;;;;;;;4.27;2.33;;;8.50;99.90;;;;;;5459813;26;20281;-75
2024/04/13 02:35:58;;;;;;;3.42;2.30;;;8.50;99.90;;;;;;5454004;26;20234;-76
2024/04/13 02:38:27;;;;;;;3.75;2.47;;;8.50;99.90;;;;;;5444635;26;20242;-76
2024/04/13 02:40:56;;;;;;;2.30;2.10;;;8.50;99.90;;;;;;5470487;26;20305;-75
2024/04/13 02:43:25;;;;;;;3.55;2.15;;;8.50;99.90;;;;;;5440559;26;20238;-76
2024/04/13 02:45:51;;;;;;;2.40;2.20;;;8.40;99.90;;;;;;5440483;26;20246;-76
2024/04/13 02:48:19;;;;;;;2.97;1.87;;;8.40;99.90;;;;;;5439944;26;20289;-76
2024/04/13 02:50:48;;;;;;;2.15;1.95;;;8.40;99.90;;;;;;5439873;26;20585;-76
2024/04/13 02:53:16;;;;;;;4.18;2.65;;;8.40;99.90;;;;;;5440264;26;20708;-76
2024/04/13 02:55:42;;;;;;;2.53;2.33;;;8.40;99.90;;;;;;5440186;26;20230;-76
2024/04/13 02:58:10;;;;;;;2.57;2.37;;;8.30;99.90;;;;;;5440093;26;20238;-76
2024/04/13 03:00:36;;;;;;;2.40;2.20;;;8.30;99.90;;;;;;5439470;26;20268;-76
2024/04/13 03:03:05;;;;;;;3.10;2.57;;;8.30;99.90;;;;;;5440432;26;20238;-76
2024/04/13 03:05:31;;;;;;;3.95;2.90;;;8.20;99.90;;;;;;5440138;26;20294;-76
2024/04/13 03:08:02;;;;;;;4.95;2.40;;;8.20;99.90;;;;;;5440229;26;20250;-75
2024/04/13 03:10:27;;;;;;;2.45;2.20;;;8.20;99.90;;;;;;5439452;26;20230;-76
2024/04/13 03:12:56;;;;;;;2.50;2.30;;;8.10;99.90;;;;;;5439938;26;20573;-76
2024/04/13 03:15:22;;;;;;;3.58;3.10;;;8.10;99.90;;;;;;5440038;26;20689;-75
2024/04/13 03:17:50;;;;;;;2.70;2.50;;;8.10;99.90;;;;;;5439607;26;20323;-75
2024/04/13 03:20:16;;;;;;;3.13;2.35;;;8.10;99.90;;;;;;5439525;26;20234;-75
2024/04/13 03:22:45;;;;;;;2.80;2.47;;;8.00;99.90;;;;;;5439740;26;20234;-76
2024/04/13 03:25:13;;;;;;;3.13;2.42;;;8.10;99.90;;;;;;5439933;26;20238;-76
2024/04/13 03:27:42;;;;;;;3.00;2.50;;;8.10;99.90;;;;;;5439846;26;20598;-76
2024/04/13 03:30:08;;;;;;;2.70;2.20;;;8.10;99.90;;;;;;5439183;26;20723;-76
2024/04/13 03:32:36;;;;;;;2.50;2.30;;;8.00;99.90;;;;;;5439972;26;20242;-76
2024/04/13 03:35:03;;;;;;;2.88;2.45;;;8.00;99.90;;;;;;5439922;26;20476;-76
2024/04/13 03:37:31;;;;;;;3.38;2.80;;;8.00;99.90;;;;;;5438622;26;20242;-75
2024/04/13 03:40:00;;;;;;;2.67;2.10;;;8.00;99.90;;;;;;5438540;26;20234;-76
2024/04/13 03:42:31;;;;;;;4.60;2.63;;;8.00;99.90;;;;;;5439483;26;20272;-76
2024/04/13 03:44:57;;;;;;;3.83;2.53;;;8.00;99.90;;;;;;5439256;26;20570;-75
2024/04/13 03:47:26;;;;;;;2.72;2.53;;;8.00;99.90;;;;;;5439535;26;20307;-75
2024/04/13 03:49:52;;;;;;;4.70;2.60;;;7.90;99.90;;;;;;5438509;26;20230;-75
2024/04/13 03:52:20;;;;;;;3.20;2.40;;;7.90;99.90;;;;;;5439591;26;20676;-76
2024/04/13 03:54:46;;;;;;;2.50;2.30;;;7.90;99.90;;;;;;5439440;26;20561;-76
2024/04/13 03:57:15;;;;;;;2.80;2.53;;;7.90;99.90;;;;;;5439522;26;20314;-75
2024/04/13 03:59:44;;;;;;;5.22;2.50;;;7.90;99.90;;;;;;5439954;26;20230;-75
2024/04/13 04:02:12;;;;;;;2.75;2.28;;;7.90;99.90;;;;;;5451714;26;20305;-75
2024/04/13 04:04:38;;;;;;;3.60;2.10;;;7.90;99.90;;;;;;5438999;26;20726;-76
2024/04/13 04:07:06;;;;;;;7.33;2.63;;;7.80;99.90;;;;;;5438906;26;20249;-75
2024/04/13 04:09:33;;;;;;;2.95;2.20;;;7.80;99.90;;;;;;5438718;26;20273;-75
2024/04/13 04:12:01;;;;;;;3.60;2.55;;;7.80;99.90;;;;;;5461554;26;20234;-76
2024/04/13 04:14:27;;;;;;;4.57;2.70;;;7.80;99.90;;;;;;5438694;26;20234;-76
2024/04/13 04:16:58;;;;;;;2.60;2.23;;;7.80;99.90;;;;;;5438762;26;20334;-76
2024/04/13 04:22:26;;;;;;;2.25;2.05;;;7.80;99.90;;;;;;5505980;21;20252;-92
2024/04/13 04:25:31;;;;;;;3.90;2.30;;;7.70;99.90;;;;;;5490270;26;20355;-91
2024/04/13 04:28:11;;;;;;;2.75;2.55;;;7.60;99.90;;;;;;5356773;26;20236;-93
2024/04/13 04:30:40;;;;;;;4.22;2.40;;;7.60;99.90;;;;;;5363017;26;20329;-93
2024/04/13 04:33:14;;;;;;;3.80;2.88;;;7.60;99.90;;;;;;5469886;26;20277;-93
2024/04/13 04:35:39;;;;;;;4.30;3.00;;;7.60;99.90;;;;;;5462760;26;20232;-93
2024/04/13 04:38:35;;;;;;;3.70;2.70;;;7.60;99.90;;;;;;5459150;26;20620;-93
2024/04/13 04:41:01;;;;;;;6.20;3.10;;;7.60;99.90;;;;;;5445698;26;20513;-93
2024/04/13 04:43:42;;;;;;;1.95;1.85;;;7.60;99.90;;;;;;5468634;26;20234;-93
2024/04/13 04:46:17;;;;;;;2.88;2.60;;;7.60;99.90;;;;;;5468304;26;20232;-93
2024/04/13 04:48:53;;;;;;;3.20;2.58;;;7.60;99.90;;;;;;5456146;26;20222;-93
2024/04/13 04:51:20;;;;;;;2.83;2.50;;;7.60;99.90;;;;;;5491585;26;20328;-94
2024/04/13 05:00:16;;;;;;;3.63;2.55;;;7.50;99.90;;;;;;5437920;26;20273;-93
2024/04/13 05:06:18;;;;;;;2.58;2.13;;;7.60;99.90;;;;;;5337803;26;20595;-93
2024/04/13 05:09:31;;;;;;;3.28;2.88;;;7.60;99.90;;;;;;5351882;26;20221;-93
2024/04/13 05:12:12;;;;;;;2.60;2.40;;;7.60;99.90;;;;;;5456936;26;20276;-93
2024/04/13 05:14:50;;;;;;;3.25;2.72;;;7.70;99.90;;;;;;5459699;26;20229;-93
2024/04/13 05:20:36;;;;;;;5.93;2.47;;;7.70;99.90;;;;;;5469257;26;20719;-93
2024/04/13 05:23:10;;;;;;;4.60;3.40;;;7.70;99.90;;;;;;5471271;26;20298;-93
2024/04/13 05:25:43;;;;;;;2.50;2.30;;;7.80;99.90;;;;;;5494231;26;20702;-93
2024/04/13 05:28:09;;;;;;;2.50;2.30;;;7.80;99.90;;;;;;5492158;26;20237;-93
2024/04/13 05:30:55;;;;;;;2.70;2.50;;;7.80;99.90;;;;;;5491944;26;20240;-93
2024/04/13 05:33:21;;;;;;;2.15;1.95;;;7.80;99.90;;;;;;5461397;26;20961;-93
2024/04/13 05:36:01;;;;;;;;;;;;;;;;;;;;;
2024/04/13 05:38:30;;;;;;;2.88;2.60;;;7.90;99.90;;;;;;5453766;26;20523;-92
2024/04/13 05:43:40;;;;;;;3.97;2.65;;;8.00;99.90;;;;;;5430415;26;20267;-93
2024/04/13 05:46:09;;;;;;;2.45;2.25;;;8.00;99.90;;;;;;5491656;26;20236;-93
2024/04/13 05:48:38;;;;;;;3.70;2.88;;;8.00;99.90;;;;;;5454796;26;20286;-93
2024/04/13 05:51:13;;;;;;;4.18;2.72;;;8.10;99.90;;;;;;5455221;26;20241;-93
2024/04/13 05:53:45;;;;;;;2.25;2.05;;;8.20;99.90;;;;;;5457737;26;20237;-93
2024/04/13 05:56:11;;;;;;;5.40;2.42;;;8.30;99.90;;;;;;5487344;26;20283;-93
2024/04/13 05:58:43;;;;;;;4.60;3.20;;;8.40;99.90;;;;;;5490896;26;20245;-92
2024/04/13 06:01:28;;;;;;;3.80;2.45;;;8.50;99.90;;;;;;5459531;26;20514;-93
2024/04/13 06:04:11;;;;;;;3.08;2.63;;;8.60;99.90;;;;;;5471143;26;20780;-94
2024/04/13 06:06:37;;;;;;;4.18;2.33;;;8.70;99.90;;;;;;5464882;26;20244;-94
2024/04/13 06:09:23;;;;;;;3.63;2.70;;;8.90;99.90;;;;;;5491053;26;20415;-94
2024/04/13 06:11:49;;;;;;;2.97;2.30;;;9.00;99.90;;;;;;5491050;26;21001;-94
2024/04/13 06:14:17;;;;;;;3.00;2.70;;;9.20;99.90;;;;;;5473894;26;20237;-94
2024/04/13 06:16:46;;;;;;;3.60;2.97;;;9.30;99.90;;;;;;5466149;26;20478;-94
2024/04/13 06:19:19;;;;;;;5.90;3.17;;;9.40;99.90;;;;;;5476311;26;20316;-95
2024/04/13 06:21:45;;;;;;;3.08;2.40;;;9.60;99.90;;;;;;5468422;21;20257;-75
2024/04/13 06:24:16;;;;;;;3.90;2.57;;;9.70;99.90;;;;;;5451149;26;20265;-75
2024/04/13 06:26:42;;;;;;;5.00;3.30;;;9.90;99.90;;;;;;5451214;26;20571;-75
2024/04/13 06:29:10;;;;;;;5.67;3.20;;;10.00;99.90;;;;;;5449685;26;20237;-75
2024/04/13 06:31:36;;;;;;;5.55;4.00;;;10.20;99.90;;;;;;5450694;26;20874;-73
2024/04/13 06:34:04;;;;;;;4.23;3.10;;;10.40;99.90;;;;;;5451991;26;20342;-75
2024/04/13 06:36:30;;;;;;;3.65;2.70;;;10.60;99.90;;;;;;5451143;26;20234;-74
2024/04/13 06:38:59;;;;;;;5.53;2.83;;;10.80;99.90;;;;;;5450224;26;20317;-74
2024/04/13 06:41:27;;;;;;;5.07;3.13;;;11.00;99.90;;;;;;5451086;26;20524;-72
2024/04/13 06:43:55;;;;;;;2.93;2.73;;;11.20;99.90;;;;;;5450620;26;20238;-72
2024/04/13 06:46:21;;;;;;;4.43;2.90;;;11.50;99.90;;;;;;5450426;26;20593;-72
2024/04/13 06:48:50;;;;;;;3.53;3.23;;;11.70;99.90;;;;;;5450151;26;20483;-73
2024/04/13 06:51:15;;;;;;;2.63;2.30;;;11.90;99.90;;;;;;5450540;26;20652;-73
2024/04/13 06:53:44;;;;;;;2.60;2.30;;;12.10;99.90;;;;;;5450647;26;20575;-73
2024/04/13 06:56:09;;;;;;;3.53;2.63;;;12.30;99.90;;;;;;5450214;26;20580;-73
2024/04/13 06:58:40;;;;;;;3.10;2.70;;;12.50;99.90;;;;;;5450353;26;20463;-73
2024/04/13 07:01:06;;;;;;;4.67;2.70;;;12.70;99.90;;;;;;5450250;26;20230;-73
2024/04/13 07:03:34;;;;;;;3.33;2.40;;;12.80;99.90;;;;;;5450716;26;20928;-73
2024/04/13 07:06:01;;;;;;;2.70;2.43;;;13.00;99.90;;;;;;5450480;26;20306;-73
2024/04/13 07:08:30;;;;;;;2.60;2.33;;;13.20;99.90;;;;;;5450177;26;20514;-73
2024/04/13 07:10:56;;;;;;;3.17;2.40;;;13.30;99.90;;;;;;5449193;26;20471;-73
2024/04/13 07:13:24;;;;;;;4.77;2.50;;;13.50;99.90;;;;;;5449771;26;20580;-73
2024/04/13 07:15:53;;;;;;;3.93;2.30;;;13.60;99.90;;;;;;5450147;26;20467;-74
2024/04/13 07:18:21;;;;;;;4.17;2.83;;;13.80;99.90;;;;;;5446236;26;20475;-75
2024/04/13 07:20:47;;;;;;;2.27;1.90;;;14.10;99.90;;;;;;5450114;26;20526;-75
2024/04/13 07:23:16;;;;;;;3.20;2.57;;;14.30;99.90;;;;;;5449906;26;20475;-75
2024/04/13 07:25:42;;;;;;;2.87;2.53;;;14.40;99.90;;;;;;5450580;26;20238;-74
2024/04/13 07:28:12;;;;;;;3.00;2.37;;;14.60;99.90;;;;;;5449829;26;20563;-74
2024/04/13 07:30:38;;;;;;;2.80;2.30;;;14.80;99.90;;;;;;5456948;26;20583;-76
2024/04/13 07:33:09;;;;;;;2.70;2.27;;;15.00;99.90;;;;;;5454237;26;20463;-76
2024/04/13 07:35:34;;;;;;;2.53;2.33;;;15.10;99.90;;;;;;5436516;26;20766;-75
2024/04/13 07:38:03;;;;;;;2.73;2.07;;;15.30;99.90;;;;;;5449938;26;20586;-75
2024/04/13 07:40:28;;;;;;;3.63;2.07;;;15.40;99.90;;;;;;5449421;26;20237;-74
2024/04/13 07:42:57;;;;;;;3.00;2.37;;;15.60;99.90;;;;;;5450035;26;20832;-75
2024/04/13 07:45:23;;;;;;;2.47;2.27;;;15.80;99.90;;;;;;5447740;26;20312;-74
2024/04/13 07:47:51;;;;;;;4.50;2.87;;;16.00;99.90;;;;;;5449592;26;20587;-75
2024/04/13 07:50:20;;;;;;;2.97;2.20;;;16.10;99.90;;;;;;5449156;26;20297;-75
2024/04/13 07:52:48;;;;;;;3.57;2.47;;;16.30;99.90;;;;;;5449812;26;20943;-75
2024/04/13 07:55:14;;;;;;;3.87;2.47;;;16.50;99.90;;;;;;5449436;26;20467;-75
2024/04/13 07:57:42;;;;;;;2.97;2.70;;;16.70;99.90;;;;;;5449610;26;20585;-75
2024/04/13 08:00:09;;;;;;;3.40;2.50;;;17.00;99.90;;;;;;5448884;26;20538;-75
2024/04/13 08:02:38;;;;;;;2.70;2.50;;;17.20;99.90;;;;;;5449638;26;20552;-75
2024/04/13 08:05:06;;;;;;;2.43;2.23;;;17.50;99.90;;;;;;5449445;26;20471;-76
2024/04/13 08:07:37;;;;;;;2.03;1.83;;;17.90;99.90;;;;;;5437663;26;20514;-76
2024/04/13 08:10:03;;;;;;;1.97;1.77;;;18.40;99.90;;;;;;5439844;26;20471;-76
2024/04/13 08:12:32;;;;;;;4.60;2.67;;;19.00;99.90;;;;;;5440068;26;20479;-76
2024/04/13 08:14:58;;;;;;;4.00;2.30;;;19.60;99.90;;;;;;5448979;26;20603;-76
2024/04/13 08:17:28;;;;;;;2.20;2.00;;;20.00;99.90;;;;;;5439231;26;20994;-76
2024/04/13 08:19:54;;;;;;;2.20;2.00;;;20.40;99.90;;;;;;5449265;26;20920;-76
2024/04/13 08:22:22;;;;;;;2.80;2.13;;;20.80;99.90;;;;;;5446157;26;21095;-76
2024/04/13 08:24:53;;;;;;;2.50;1.67;;;21.10;99.90;;;;;;5452929;26;20482;-76
2024/04/13 08:27:24;;;;;;;2.60;1.80;;;21.40;99.90;;;;;;5442885;26;20530;-76
2024/04/13 08:29:53;;;;;;;1.60;1.43;;;21.70;99.90;;;;;;5452160;26;20475;-77
2024/04/13 08:32:24;;;;;;;8.40;1.80;;;22.10;98.60;;;;;;5444706;26;20471;-76
2024/04/13 08:34:57;;;;;;;1.90;1.70;;;22.40;99.50;;;;;;5453070;26;20537;-76
2024/04/13 08:37:35;;;;;;;3.87;2.20;;;22.60;96.90;;;;;;5444927;26;20553;-76
2024/04/13 08:40:05;;;;;;;3.33;2.13;;;22.80;96.70;;;;;;5451835;26;20482;-76
2024/04/13 08:42:38;;;;;;;3.20;2.57;;;22.90;96.80;;;;;;5445877;26;20574;-76
2024/04/13 08:45:08;;;;;;;2.70;2.27;;;23.30;97.30;;;;;;5452229;26;20482;-76
2024/04/13 08:47:41;;;;;;;4.67;2.30;;;23.70;96.50;;;;;;5438864;26;20478;-74
2024/04/13 08:50:08;;;;;;;3.23;2.63;;;23.90;96.70;;;;;;5452938;26;21003;-75
2024/04/13 08:52:37;;;;;;;4.00;2.60;;;24.50;96.30;;;;;;5439005;26;20526;-75
2024/04/13 08:55:06;;;;;;;2.23;1.97;;;24.50;94.20;;;;;;5446037;26;20921;-75
2024/04/13 08:57:35;;;;;;;2.67;1.90;;;24.40;95.10;;;;;;5446829;26;20479;-75
2024/04/13 09:00:03;;;;;;;1.73;1.63;;;24.60;95.70;;;;;;5451836;26;20529;-75
2024/04/13 09:02:35;;;;;;;2.40;2.20;;;24.80;93.80;;;;;;5446703;26;20939;-75
2024/04/13 09:05:03;;;;;;;2.17;1.97;;;24.80;94.00;;;;;;5452216;26;20471;-75
2024/04/13 09:07:34;;;;;;;2.27;2.07;;;25.00;94.00;;;;;;5446378;26;20590;-75
2024/04/13 09:10:00;;;;;;;2.73;2.10;;;25.10;93.90;;;;;;5448260;26;20826;-75
2024/04/13 09:12:31;;;;;;;3.87;1.90;;;25.30;93.20;;;;;;5447665;26;20547;-75
2024/04/13 09:14:57;;;;;;;2.63;2.20;;;25.60;93.80;;;;;;5451909;26;20608;-74
2024/04/13 09:17:27;;;;;;;3.13;1.97;;;26.10;93.50;;;;;;5447323;26;20554;-74
2024/04/13 09:19:55;;;;;;;3.60;2.23;;;26.50;92.10;;;;;;5451339;26;20540;-75
2024/04/13 09:22:25;;;;;;;3.00;2.37;;;26.60;91.80;;;;;;5447876;26;20535;-75
2024/04/13 09:24:51;;;;;;;2.57;2.37;;;26.80;93.00;;;;;;5452288;26;20527;-75
2024/04/13 09:27:21;;;;;;;2.40;1.90;;;27.20;92.40;;;;;;5451244;26;20566;-75
2024/04/13 09:29:50;;;;;;;2.33;1.93;;;27.30;90.70;;;;;;5452191;26;20570;-75
2024/04/13 09:32:26;;;;;;;2.30;2.10;;;27.40;89.10;;;;;;5451670;26;20521;-74
2024/04/13 09:34:52;;;;;;;2.93;1.87;;;27.60;90.30;;;;;;5451449;26;20475;-75
2024/04/13 09:37:21;;;;;;;2.03;1.83;;;27.90;90.10;;;;;;5451609;26;20531;-74
2024/04/13 09:39:47;;;;;;;4.70;2.40;;;28.00;90.10;;;;;;5452181;26;20483;-75
2024/04/13 09:42:17;;;;;;;3.33;1.90;;;27.90;87.40;;;;;;5451463;26;20520;-75
2024/04/13 09:44:43;;;;;;;2.83;2.10;;;27.80;89.60;;;;;;5451175;26;20274;-74
2024/04/13 09:47:15;;;;;;;2.20;1.80;;;27.80;87.60;;;;;;5450841;26;20576;-75
2024/04/13 09:49:41;;;;;;;3.30;2.17;;;27.90;89.40;;;;;;5449444;26;20702;-75
2024/04/13 09:52:10;;;;;;;3.63;2.20;;;27.70;87.80;;;;;;5451288;26;20653;-75
2024/04/13 09:54:36;;;;;;;3.33;2.07;;;28.20;89.60;;;;;;5437935;26;20281;-75
2024/04/13 09:57:05;;;;;;;4.00;1.90;;;28.40;89.70;;;;;;5437802;26;20566;-75
2024/04/13 09:59:33;;;;;;;2.10;1.90;;;28.70;88.90;;;;;;5440946;26;21156;-75
2024/04/13 10:02:01;;;;;;;3.10;2.20;;;28.90;88.10;;;;;;5447415;26;20530;-74
2024/04/13 10:04:30;;;;;;;2.53;2.00;;;29.00;86.50;;;;;;5449040;26;20529;-74
2024/04/13 10:06:59;;;;;;;1.87;1.70;;;29.20;87.10;;;;;;5448735;26;20471;-74
2024/04/13 10:09:27;;;;;;;2.40;2.13;;;29.60;86.90;;;;;;5449969;26;20479;-74
2024/04/13 10:11:57;;;;;;;2.07;1.90;;;29.80;85.70;;;;;;5455698;26;20474;-76
2024/04/13 10:14:26;;;;;;;2.07;1.90;;;29.80;86.50;;;;;;5450941;26;20463;-75
2024/04/13 10:17:01;;;;;;;2.07;1.87;;;30.10;86.30;;;;;;5444926;26;20479;-75
2024/04/13 10:19:29;;;;;;;2.83;1.73;;;30.30;86.80;;;;;;5450338;26;20470;-75
2024/04/13 10:21:59;;;;;;;2.33;1.50;;;30.80;86.40;;;;;;5451362;26;20502;-75
2024/04/13 10:24:27;;;;;;;1.93;1.80;;;31.40;84.10;;;;;;5441300;26;20475;-75
2024/04/13 10:26:56;;;;;;;2.77;1.83;;;31.70;85.70;;;;;;5448283;26;20479;-77
2024/04/13 10:29:25;;;;;;;6.27;1.80;;;31.70;82.80;;;;;;5435745;26;20472;-77
2024/04/13 10:31:54;;;;;;;2.07;1.87;;;31.70;82.90;;;;;;5438032;26;20528;-77
2024/04/13 10:34:24;;;;;;;2.43;1.93;;;31.70;81.80;;;;;;5440296;26;20542;-77
2024/04/13 10:37:01;;;;;;;2.10;1.63;;;31.90;82.70;;;;;;5436157;26;20468;-77
2024/04/13 10:39:27;;;;;;;2.13;1.93;;;31.60;81.80;;;;;;5437017;26;20475;-77
2024/04/13 10:41:55;;;;;;;1.93;1.67;;;31.70;81.10;;;;;;5438013;26;20476;-76
2024/04/13 10:44:25;;;;;;;3.67;2.00;;;31.80;81.40;;;;;;5439625;26;20575;-77
2024/04/13 10:46:53;;;;;;;2.10;1.63;;;31.70;85.10;;;;;;5437702;26;20475;-76
2024/04/13 10:49:20;;;;;;;2.50;1.80;;;31.90;81.80;;;;;;5438744;26;20479;-77
2024/04/13 10:51:48;;;;;;;2.20;1.40;;;32.00;78.00;;;;;;5437348;26;20830;-77
2024/04/13 10:54:17;;;;;;;2.07;1.73;;;32.20;80.80;;;;;;5440339;26;20467;-77
2024/04/13 10:56:46;;;;;;;1.87;1.73;;;32.40;78.60;;;;;;5435947;26;20487;-76
2024/04/13 10:59:12;;;;;;;2.97;1.70;;;32.80;81.70;;;;;;5440670;26;20535;-77
2024/04/13 11:01:44;;;;;;;1.80;1.53;;;32.50;79.20;;;;;;5435304;26;21109;-76
2024/04/13 11:04:13;;;;;;;2.90;1.60;;;32.60;76.20;;;;;;5437198;26;20234;-75
2024/04/13 11:06:39;;;;;;;2.80;1.90;;;33.10;76.10;;;;;;5435457;26;20477;-76
2024/04/13 11:09:09;;;;;;;3.20;1.97;;;33.50;78.50;;;;;;5436085;26;20901;-75
2024/04/13 11:11:37;;;;;;;1.53;1.40;;;33.60;77.20;;;;;;5432233;26;20523;-76
2024/04/13 11:14:06;;;;;;;2.03;1.70;;;33.40;75.30;;;;;;5439977;26;20463;-76
2024/04/13 11:16:32;;;;;;;5.40;2.03;;;33.00;74.80;;;;;;5434245;26;20451;-75
2024/04/13 11:19:02;;;;;;;1.37;1.27;;;33.10;77.80;;;;;;5448519;26;21006;-77
2024/04/13 11:21:29;;;;;;;1.60;1.50;;;33.20;76.30;;;;;;5450095;26;20606;-76
2024/04/13 11:23:58;;;;;;;1.40;1.30;;;33.30;74.50;;;;;;5450228;26;20873;-76
2024/04/13 11:26:25;;;;;;;2.07;1.37;;;33.30;71.70;;;;;;5448779;26;20475;-76
2024/04/13 11:28:56;;;;;;;1.40;1.30;;;32.90;68.80;;;;;;5447995;26;20599;-76
2024/04/13 11:31:22;;;;;;;2.83;1.40;;;33.10;69.60;;;;;;5434461;26;20547;-75
2024/04/13 11:33:51;;;;;;;1.40;1.30;;;33.00;70.80;;;;;;5450998;26;20486;-76
2024/04/13 11:36:18;;;;;;;1.50;1.30;;;33.30;73.00;;;;;;5450891;26;20479;-76
2024/04/13 11:38:47;;;;;;;1.60;1.50;;;33.60;72.50;;;;;;5438744;26;20475;-76
2024/04/13 11:41:13;;;;;;;2.13;1.70;;;33.80;74.80;;;;;;5438669;26;20481;-76
2024/04/13 11:43:41;;;;;;;1.50;1.37;;;33.90;69.50;;;;;;5450539;26;20506;-76
2024/04/13 11:46:10;;;;;;;1.37;1.27;;;33.90;71.00;;;;;;5447340;26;20467;-76
2024/04/13 11:48:38;;;;;;;1.43;1.33;;;34.10;70.70;;;;;;5441570;26;20648;-76
2024/04/13 11:51:06;;;;;;;1.03;0.93;;;34.30;71.90;;;;;;5439250;26;20976;-75
2024/04/13 11:53:34;;;;;;;1.10;0.90;;;33.90;69.20;;;;;;5447362;26;20459;-75
2024/04/13 11:56:02;;;;;;;1.10;1.00;;;34.00;66.60;;;;;;5448574;26;21749;-76
2024/04/13 11:58:31;;;;;;;1.10;0.80;;;33.50;63.80;;;;;;5451145;26;20464;-76
2024/04/13 12:00:56;;;;;;;1.17;1.00;;;33.10;64.70;;;;;;5452738;26;20523;-76
2024/04/13 12:03:27;;;;;;;1.50;1.07;;;31.90;63.70;;;;;;5450727;26;21019;-75
2024/04/13 12:05:53;;;;;;;2.30;2.10;;;30.70;65.40;;;;;;5450916;26;20284;-75
2024/04/13 12:08:22;;;;;;;1.60;1.50;;;30.20;67.80;;;;;;5452296;26;20923;-75
2024/04/13 12:10:47;;;;;;;1.60;1.10;;;30.00;65.70;;;;;;5441690;26;20233;-75
2024/04/13 12:13:16;;;;;;;1.43;1.33;;;29.60;66.50;;;;;;5452437;26;20579;-75
2024/04/13 12:15:42;;;;;;;1.60;1.20;;;30.10;67.40;;;;;;5451246;26;20231;-75
2024/04/13 12:18:12;;;;;;;1.30;1.20;;;30.70;66.10;;;;;;5447902;26;20471;-76
2024/04/13 12:20:41;;;;;;;1.60;1.00;;;30.20;64.40;;;;;;5449364;26;20365;-76
2024/04/13 12:23:09;;;;;;;1.10;0.87;;;29.40;65.80;;;;;;5451527;26;20475;-75
2024/04/13 12:25:36;;;;;;;1.33;1.13;;;29.10;68.40;;;;;;5450805;26;20512;-76
2024/04/13 12:28:07;;;;;;;2.20;1.30;;;29.50;67.40;;;;;;5451098;26;20479;-76
2024/04/13 12:30:33;;;;;;;1.80;1.57;;;29.50;66.90;;;;;;5446856;26;20471;-76
2024/04/13 12:33:02;;;;;;;1.80;1.23;;;30.00;68.10;;;;;;5450522;26;21162;-76
2024/04/13 12:35:28;;;;;;;1.63;1.20;;;30.30;67.50;;;;;;5451720;26;20724;-76
2024/04/13 12:38:00;;;;;;;1.73;1.30;;;30.60;69.50;;;;;;5441681;26;20897;-76
2024/04/13 12:40:26;;;;;;;1.30;1.00;;;30.90;66.50;;;;;;5451387;26;20471;-76
2024/04/13 12:42:55;;;;;;;1.40;1.30;;;30.60;65.90;;;;;;5451126;26;20486;-76
2024/04/13 12:45:20;;;;;;;1.20;1.10;;;30.30;67.10;;;;;;5451769;26;20234;-76
2024/04/13 12:47:51;;;;;;;1.40;1.10;;;30.80;65.60;;;;;;5449828;26;20479;-76
2024/04/13 12:50:17;;;;;;;1.70;1.33;;;30.90;66.80;;;;;;5449495;26;20839;-76
2024/04/13 12:52:46;;;;;;;1.30;1.10;;;31.40;67.30;;;;;;5450580;26;21038;-76
2024/04/13 12:55:15;;;;;;;3.40;1.20;;;32.00;68.50;;;;;;5451849;26;20863;-76
2024/04/13 12:57:45;;;;;;;1.10;1.00;;;32.80;66.80;;;;;;5449833;26;20519;-76
2024/04/13 13:00:13;;;;;;;1.47;1.00;;;33.50;64.20;;;;;;5461401;26;20542;-76
2024/04/13 13:02:41;;;;;;;1.30;1.20;;;34.00;64.60;;;;;;5450756;26;20534;-76
2024/04/13 13:05:07;;;;;;;1.00;0.90;;;34.30;65.50;;;;;;5451506;26;20503;-76
2024/04/13 13:07:35;;;;;;;1.53;1.13;;;34.50;66.30;;;;;;5450657;26;20463;-76
2024/04/13 13:10:01;;;;;;;1.30;1.20;;;34.60;64.50;;;;;;5449062;26;20483;-76
2024/04/13 13:12:32;;;;;;;1.40;1.23;;;33.80;59.10;;;;;;5451250;26;20581;-76
2024/04/13 13:14:58;;;;;;;1.70;1.40;;;33.70;63.60;;;;;;5442768;26;20298;-76
2024/04/13 13:17:26;;;;;;;1.50;1.40;;;33.50;59.40;;;;;;5451586;26;20479;-76
2024/04/13 13:19:52;;;;;;;2.80;1.20;;;33.10;59.90;;;;;;5446866;26;20277;-76